createdAt,value
2022-07-27T00:01:25.296Z,101131.13
2022-07-27T00:03:51.845Z,101137.81
2022-07-27T00:06:18.355Z,101140.03
2022-07-27T00:08:45.397Z,101137.25
2022-07-27T00:11:12.058Z,101136.53
2022-07-27T00:13:38.808Z,101140.13
2022-07-27T00:16:05.819Z,101139.13
2022-07-27T00:18:32.492Z,101132.81
2022-07-27T00:20:58.935Z,101138.91
2022-07-27T00:23:25.374Z,101142.13
2022-07-27T00:25:52.104Z,101136.06
2022-07-27T00:28:18.582Z,101141.50
2022-07-27T00:30:45.230Z,101142.97
2022-07-27T00:33:11.692Z,101138.66
2022-07-27T00:35:43.879Z,101139.34
2022-07-27T00:38:10.314Z,101147.09
2022-07-27T00:40:36.786Z,101142.56
2022-07-27T00:43:03.322Z,101137.50
2022-07-27T00:45:29.895Z,101142.41
2022-07-27T00:47:56.363Z,101141.88
2022-07-27T00:50:23.437Z,101145.63
2022-07-27T00:52:50.023Z,101141.47
2022-07-27T00:55:16.506Z,101144.88
2022-07-27T00:57:58.947Z,101146.09
2022-07-27T01:00:27.298Z,101148.31
2022-07-27T01:02:53.920Z,101143.31
2022-07-27T01:05:20.683Z,101145.75
2022-07-27T01:07:48.796Z,101137.97
2022-07-27T01:10:15.461Z,101146.34
2022-07-27T01:12:42.045Z,101139.22
2022-07-27T01:15:08.819Z,101138.78
2022-07-27T01:17:35.593Z,101131.28
2022-07-27T01:20:02.069Z,101124.28
2022-07-27T01:22:28.652Z,101131.84
2022-07-27T01:24:55.180Z,101134.88
2022-07-27T01:27:22.009Z,101132.91
2022-07-27T01:29:48.790Z,101135.31
2022-07-27T01:32:15.594Z,101129.97
2022-07-27T01:34:42.137Z,101140.22
2022-07-27T01:37:08.687Z,101136.66
2022-07-27T01:39:35.223Z,101137.81
2022-07-27T01:42:02.108Z,101130.63
2022-07-27T01:44:28.621Z,101135.34
2022-07-27T01:46:55.350Z,101140.56
2022-07-27T01:49:22.210Z,101134.13
2022-07-27T01:51:48.936Z,101138.13
2022-07-27T01:54:15.462Z,101130.41
2022-07-27T01:56:41.927Z,101137.25
2022-07-27T01:59:16.246Z,101127.91
2022-07-27T02:01:44.484Z,101136.72
2022-07-27T02:04:11.306Z,101142.84
2022-07-27T02:06:37.859Z,101142.38
2022-07-27T02:09:04.330Z,101141.94
2022-07-27T02:11:49.372Z,101144.75
2022-07-27T02:14:16.414Z,101142.56
2022-07-27T02:20:30.997Z,101143.56
2022-07-27T02:22:57.559Z,101145.97
2022-07-27T02:25:24.015Z,101145.28
2022-07-27T02:27:50.480Z,101142.34
2022-07-27T02:30:17.883Z,101149.03
2022-07-27T02:32:44.808Z,101146.53
2022-07-27T02:35:19.423Z,101146.13
2022-07-27T02:37:47.741Z,101146.66
2022-07-27T02:40:17.325Z,101152.34
2022-07-27T02:42:45.067Z,101149.09
2022-07-27T02:45:11.547Z,101151.06
2022-07-27T02:47:40.026Z,101151.94
2022-07-27T02:50:07.521Z,101148.50
2022-07-27T02:52:34.066Z,101152.06
2022-07-27T02:55:00.502Z,101153.28
2022-07-27T02:57:27.050Z,101154.34
2022-07-27T02:59:53.518Z,101152.06
2022-07-27T03:02:23.681Z,101148.53
2022-07-27T03:04:50.229Z,101149.63
2022-07-27T03:07:16.820Z,101149.63
2022-07-27T03:09:43.279Z,101145.56
2022-07-27T03:12:09.881Z,101147.25
2022-07-27T03:14:36.378Z,101148.03
2022-07-27T03:17:02.804Z,101158.13
2022-07-27T03:23:18.036Z,101158.03
2022-07-27T03:25:44.490Z,101156.53
2022-07-27T03:28:11.054Z,101157.53
2022-07-27T03:30:37.555Z,101147.28
2022-07-27T03:33:04.085Z,101157.06
2022-07-27T03:35:30.554Z,101161.63
2022-07-27T03:37:57.015Z,101159.75
2022-07-27T03:40:24.463Z,101158.44
2022-07-27T03:42:50.947Z,101164.06
2022-07-27T03:45:17.504Z,101161.50
2022-07-27T03:47:44.092Z,101164.38
2022-07-27T03:50:10.651Z,101166.44
2022-07-27T03:52:37.170Z,101175.06
2022-07-27T03:55:04.111Z,101171.88
2022-07-27T03:57:30.677Z,101174.22
2022-07-27T03:59:57.239Z,101178.47
2022-07-27T04:02:23.800Z,101183.47
2022-07-27T04:04:50.379Z,101178.69
2022-07-27T04:07:16.849Z,101173.16
2022-07-27T04:09:43.351Z,101176.44
2022-07-27T04:12:12.575Z,101179.41
2022-07-27T04:14:39.035Z,101179.16
2022-07-27T04:17:05.635Z,101184.25
2022-07-27T04:19:32.210Z,101179.31
2022-07-27T04:21:58.733Z,101189.13
2022-07-27T04:24:25.291Z,101202.69
2022-07-27T04:30:32.409Z,101192.22
2022-07-27T04:32:58.936Z,101204.94
2022-07-27T04:35:26.723Z,101199.59
2022-07-27T04:37:57.850Z,101197.44
2022-07-27T04:40:24.660Z,101206.00
2022-07-27T04:42:51.149Z,101201.06
2022-07-27T04:45:17.676Z,101203.06
2022-07-27T04:47:44.192Z,101206.56
2022-07-27T04:50:10.699Z,101203.97
2022-07-27T04:52:37.224Z,101197.59
2022-07-27T04:55:04.070Z,101201.25
2022-07-27T04:57:31.884Z,101202.06
2022-07-27T04:59:58.558Z,101202.16
2022-07-27T05:06:05.705Z,101204.63
2022-07-27T05:08:32.227Z,101208.88
2022-07-27T05:10:59.453Z,101214.75
2022-07-27T05:17:06.500Z,101219.66
2022-07-27T05:19:40.585Z,101214.44
2022-07-27T05:22:08.141Z,101222.94
2022-07-27T05:24:34.665Z,101213.22
2022-07-27T05:27:01.105Z,101212.13
2022-07-27T05:33:15.001Z,101217.09
2022-07-27T05:35:41.708Z,101220.09
2022-07-27T05:38:08.147Z,101215.91
2022-07-27T05:40:34.626Z,101225.53
2022-07-27T05:43:01.130Z,101220.81
2022-07-27T05:45:27.650Z,101222.44
2022-07-27T05:48:22.483Z,101222.69
2022-07-27T05:50:49.133Z,101230.88
2022-07-27T05:53:15.597Z,101222.09
2022-07-27T05:55:59.150Z,101224.72
2022-07-27T05:58:29.768Z,101227.41
2022-07-27T06:00:57.079Z,101233.00
2022-07-27T06:03:23.907Z,101224.97
2022-07-27T06:05:50.574Z,101229.19
2022-07-27T06:08:17.252Z,101241.41
2022-07-27T06:10:43.781Z,101240.69
2022-07-27T06:13:14.060Z,101241.03
2022-07-27T06:15:40.641Z,101236.91
2022-07-27T06:18:09.026Z,101233.41
2022-07-27T06:20:35.705Z,101226.72
2022-07-27T06:23:07.906Z,101225.94
2022-07-27T06:29:22.112Z,101231.97
2022-07-27T06:32:08.016Z,101238.06
2022-07-27T06:34:36.321Z,101229.53
2022-07-27T06:37:53.004Z,101236.03
2022-07-27T06:40:20.250Z,101238.13
2022-07-27T06:42:46.723Z,101230.59
2022-07-27T06:45:27.604Z,101226.22
2022-07-27T06:47:54.086Z,101226.09
2022-07-27T06:50:20.883Z,101223.09
2022-07-27T06:56:35.281Z,101230.88
2022-07-27T06:59:01.929Z,101234.81
2022-07-27T07:01:32.474Z,101231.00
2022-07-27T07:03:59.831Z,101233.59
2022-07-27T07:10:13.436Z,101227.44
2022-07-27T07:13:06.423Z,101234.34
2022-07-27T07:15:33.304Z,101241.28
2022-07-27T07:17:59.863Z,101239.94
2022-07-27T07:20:26.402Z,101237.13
2022-07-27T07:22:52.980Z,101227.53
2022-07-27T07:25:19.919Z,101237.50
2022-07-27T07:27:46.383Z,101242.19
2022-07-27T07:30:13.126Z,101241.53
2022-07-27T07:32:40.885Z,101240.25
2022-07-27T07:35:08.186Z,101231.34
2022-07-27T07:37:34.850Z,101228.59
2022-07-27T07:43:48.199Z,101233.09
2022-07-27T07:46:15.154Z,101231.72
2022-07-27T07:52:22.017Z,101227.63
2022-07-27T07:54:48.524Z,101226.88
2022-07-27T07:57:14.997Z,101224.50
2022-07-27T07:59:41.449Z,101226.72
2022-07-27T08:02:08.172Z,101221.94
2022-07-27T08:08:16.879Z,101223.59
2022-07-27T08:10:43.368Z,101229.16
2022-07-27T08:13:09.791Z,101238.91
2022-07-27T08:15:36.700Z,101237.13
2022-07-27T08:18:04.859Z,101239.56
2022-07-27T08:20:31.477Z,101242.19
2022-07-27T08:22:57.876Z,101239.56
2022-07-27T08:25:24.312Z,101239.50
2022-07-27T08:27:50.800Z,101238.91
2022-07-27T08:30:19.449Z,101240.00
2022-07-27T08:32:54.823Z,101233.91
2022-07-27T08:35:22.000Z,101234.50
2022-07-27T08:37:48.496Z,101234.75
2022-07-27T08:43:02.930Z,101239.56
2022-07-27T08:45:31.517Z,101235.81
2022-07-27T08:47:58.269Z,101232.28
2022-07-27T08:50:24.853Z,101246.44
2022-07-27T08:53:18.326Z,101245.31
2022-07-27T08:55:46.499Z,101241.28
2022-07-27T08:58:13.993Z,101252.13
2022-07-27T09:00:45.604Z,101248.63
2022-07-27T09:03:19.141Z,101257.44
2022-07-27T09:05:55.108Z,101252.28
2022-07-27T09:08:30.176Z,101251.81
2022-07-27T09:10:59.111Z,101244.28
2022-07-27T09:13:33.475Z,101253.81
2022-07-27T09:16:21.235Z,101251.50
2022-07-27T09:18:48.512Z,101252.09
2022-07-27T09:21:22.804Z,101254.63
2022-07-27T09:24:17.908Z,101242.75
2022-07-27T09:27:02.295Z,101232.16
2022-07-27T09:29:34.280Z,101227.47
2022-07-27T09:32:00.692Z,101243.09
2022-07-27T09:34:30.248Z,101240.69
2022-07-27T09:36:58.570Z,101242.47
2022-07-27T09:39:27.131Z,101244.31
2022-07-27T09:42:00.080Z,101244.97
2022-07-27T09:44:34.916Z,101239.53
2022-07-27T09:47:30.088Z,101243.41
2022-07-27T09:50:17.530Z,101256.72
2022-07-27T09:52:44.424Z,101242.94
2022-07-27T09:55:11.012Z,101245.78
2022-07-27T09:57:54.693Z,101254.88
2022-07-27T10:00:22.827Z,101243.47
2022-07-27T10:02:52.063Z,101233.22
2022-07-27T10:05:21.216Z,101235.78
2022-07-27T10:07:48.792Z,101225.56
2022-07-27T10:10:15.868Z,101218.56
2022-07-27T10:12:49.204Z,101222.91
2022-07-27T10:15:18.554Z,101226.34
2022-07-27T10:17:45.491Z,101241.94
2022-07-27T10:20:14.243Z,101240.34
2022-07-27T10:22:55.162Z,101246.97
2022-07-27T10:25:23.364Z,101255.69
2022-07-27T10:28:16.438Z,101248.22
2022-07-27T10:30:43.728Z,101243.38
2022-07-27T10:33:43.268Z,101252.31
2022-07-27T10:36:35.327Z,101248.47
2022-07-27T10:39:05.495Z,101247.63
2022-07-27T10:41:34.999Z,101236.84
2022-07-27T10:44:27.966Z,101237.34
2022-07-27T10:46:59.782Z,101240.41
2022-07-27T10:49:40.292Z,101237.66
2022-07-27T10:52:40.265Z,101240.91
2022-07-27T10:55:08.734Z,101237.41
2022-07-27T10:57:38.023Z,101243.72
2022-07-27T11:00:13.331Z,101242.47
2022-07-27T11:02:42.773Z,101238.00
2022-07-27T11:06:31.509Z,101241.38
2022-07-27T11:08:35.606Z,101240.56
2022-07-27T11:10:45.251Z,101223.47
2022-07-27T11:13:11.948Z,101230.28
2022-07-27T11:15:38.447Z,101229.81
2022-07-27T11:18:05.476Z,101228.91
2022-07-27T11:20:32.032Z,101236.97
2022-07-27T11:23:49.984Z,101233.22
2022-07-27T11:26:01.157Z,101226.06
2022-07-27T11:28:31.895Z,101219.84
2022-07-27T11:30:59.137Z,101206.38
2022-07-27T11:33:26.103Z,101209.22
2022-07-27T11:35:58.295Z,101203.03
2022-07-27T11:38:24.912Z,101214.22
2022-07-27T11:40:57.313Z,101210.59
2022-07-27T11:43:36.756Z,101227.94
2022-07-27T11:46:14.346Z,101227.56
2022-07-27T11:49:06.462Z,101219.97
2022-07-27T11:51:36.076Z,101225.63
2022-07-27T11:54:05.334Z,101224.66
2022-07-27T11:56:33.715Z,101220.66
2022-07-27T11:59:10.852Z,101216.44
2022-07-27T12:01:42.210Z,101219.19
2022-07-27T12:04:13.106Z,101206.47
2022-07-27T12:06:41.615Z,101199.28
2022-07-27T12:09:09.346Z,101202.69
2022-07-27T12:11:54.180Z,101197.69
2022-07-27T12:14:37.332Z,101199.19
2022-07-27T12:17:18.884Z,101203.47
2022-07-27T12:20:18.150Z,101200.44
2022-07-27T12:22:50.206Z,101196.34
2022-07-27T12:25:17.290Z,101198.09
2022-07-27T12:27:58.616Z,101192.38
2022-07-27T12:30:45.693Z,101186.59
2022-07-27T12:33:36.901Z,101187.22
2022-07-27T12:36:06.547Z,101181.41
2022-07-27T12:38:43.500Z,101172.16
2022-07-27T12:41:10.236Z,101169.06
2022-07-27T12:43:36.997Z,101155.97
2022-07-27T12:46:13.790Z,101152.16
2022-07-27T12:48:41.831Z,101158.78
2022-07-27T12:51:09.390Z,101169.25
2022-07-27T12:53:37.066Z,101160.44
2022-07-27T12:56:06.620Z,101162.13
2022-07-27T12:58:33.258Z,101171.13
2022-07-27T13:00:59.918Z,101169.69
2022-07-27T13:03:26.589Z,101173.75
2022-07-27T13:05:53.370Z,101179.22
2022-07-27T13:08:19.935Z,101185.19
2022-07-27T13:10:47.980Z,101176.97
2022-07-27T13:13:15.028Z,101186.53
2022-07-27T13:15:41.477Z,101182.56
2022-07-27T13:18:08.519Z,101177.09
2022-07-27T13:20:35.580Z,101162.78
2022-07-27T13:23:02.051Z,101157.63
2022-07-27T13:25:28.557Z,101143.09
2022-07-27T13:27:55.170Z,101132.34
2022-07-27T13:30:21.637Z,101126.47
2022-07-27T13:32:48.104Z,101128.84
2022-07-27T13:35:16.429Z,101121.34
2022-07-27T13:37:43.334Z,101120.06
2022-07-27T13:40:10.465Z,101119.44
2022-07-27T13:42:37.520Z,101138.38
2022-07-27T13:45:10.830Z,101149.47
2022-07-27T13:47:39.558Z,101157.31
2022-07-27T13:50:12.104Z,101154.16
2022-07-27T13:52:44.278Z,101159.69
2022-07-27T13:55:10.953Z,101161.69
2022-07-27T13:57:37.383Z,101155.50
2022-07-27T14:00:04.567Z,101147.47
2022-07-27T14:02:31.236Z,101143.97
2022-07-27T14:04:58.484Z,101138.53
2022-07-27T14:07:28.264Z,101142.91
2022-07-27T14:10:13.643Z,101144.78
2022-07-27T14:12:40.244Z,101141.84
2022-07-27T14:15:07.263Z,101133.28
2022-07-27T14:17:33.695Z,101132.75
2022-07-27T14:20:00.128Z,101133.28
2022-07-27T14:22:26.579Z,101126.53
2022-07-27T14:24:52.993Z,101133.50
2022-07-27T14:27:19.500Z,101133.19
2022-07-27T14:29:45.906Z,101138.41
2022-07-27T14:32:12.342Z,101138.78
2022-07-27T14:34:39.468Z,101137.47
2022-07-27T14:37:06.314Z,101143.97
2022-07-27T14:39:32.738Z,101140.34
2022-07-27T14:41:59.165Z,101140.72
2022-07-27T14:44:28.023Z,101148.81
2022-07-27T14:46:54.489Z,101141.47
2022-07-27T14:49:22.648Z,101148.47
2022-07-27T14:51:49.360Z,101141.94
2022-07-27T14:54:15.844Z,101149.13
2022-07-27T14:56:42.274Z,101148.44
2022-07-27T14:59:08.695Z,101150.13
2022-07-27T15:01:35.163Z,101142.28
2022-07-27T15:04:01.721Z,101138.59
2022-07-27T15:06:28.214Z,101141.41
2022-07-27T15:08:54.727Z,101137.31
2022-07-27T15:11:21.337Z,101128.06
2022-07-27T15:13:47.743Z,101122.88
2022-07-27T15:16:14.320Z,101112.94
2022-07-27T15:18:41.105Z,101111.44
2022-07-27T15:21:13.652Z,101114.75
2022-07-27T15:23:42.142Z,101116.59
2022-07-27T15:26:08.589Z,101105.59
2022-07-27T15:28:36.234Z,101102.44
2022-07-27T15:31:02.750Z,101096.38
2022-07-27T15:33:29.278Z,101093.03
2022-07-27T15:35:56.373Z,101099.19
2022-07-27T15:38:22.857Z,101099.72
2022-07-27T15:40:49.302Z,101101.47
2022-07-27T15:43:17.344Z,101107.44
2022-07-27T15:45:47.578Z,101106.06
2022-07-27T15:48:14.962Z,101109.41
2022-07-27T15:50:43.598Z,101110.69
2022-07-27T15:53:11.026Z,101104.88
2022-07-27T15:55:37.810Z,101106.44
2022-07-27T15:58:05.272Z,101099.19
2022-07-27T16:00:35.648Z,101096.41
2022-07-27T16:03:05.736Z,101089.97
2022-07-27T16:05:32.622Z,101086.81
2022-07-27T16:07:59.067Z,101080.91
2022-07-27T16:10:25.456Z,101086.06
2022-07-27T16:12:51.942Z,101082.44
2022-07-27T16:15:18.432Z,101075.63
2022-07-27T16:17:44.868Z,101072.69
2022-07-27T16:20:11.574Z,101070.56
2022-07-27T16:22:39.381Z,101076.19
2022-07-27T16:25:06.078Z,101079.28
2022-07-27T16:27:32.535Z,101077.59
2022-07-27T16:29:58.949Z,101079.25
2022-07-27T16:32:25.477Z,101079.88
2022-07-27T16:34:51.895Z,101083.94
2022-07-27T16:37:18.303Z,101082.22
2022-07-27T16:39:44.701Z,101083.44
2022-07-27T16:42:11.113Z,101085.00
2022-07-27T16:44:39.977Z,101086.09
2022-07-27T16:47:06.906Z,101078.50
2022-07-27T16:49:37.112Z,101076.03
2022-07-27T16:52:05.271Z,101081.63
2022-07-27T16:54:35.556Z,101089.81
2022-07-27T16:57:05.596Z,101080.69
2022-07-27T16:59:31.995Z,101078.88
2022-07-27T17:01:58.515Z,101074.44
2022-07-27T17:04:25.113Z,101067.72
2022-07-27T17:06:51.571Z,101065.47
2022-07-27T17:09:18.156Z,101073.38
2022-07-27T17:11:44.567Z,101067.78
2022-07-27T17:14:16.369Z,101075.50
2022-07-27T17:16:52.032Z,101077.91
2022-07-27T17:19:19.074Z,101082.69
2022-07-27T17:21:45.737Z,101071.81
2022-07-27T17:24:12.225Z,101078.84
2022-07-27T17:26:38.775Z,101075.41
2022-07-27T17:29:05.800Z,101079.22
2022-07-27T17:31:32.344Z,101076.03
2022-07-27T17:33:58.863Z,101083.88
2022-07-27T17:36:26.316Z,101072.88
2022-07-27T17:38:52.788Z,101080.47
2022-07-27T17:41:24.460Z,101076.22
2022-07-27T17:43:52.616Z,101071.94
2022-07-27T17:46:19.135Z,101071.59
2022-07-27T17:48:45.668Z,101069.66
2022-07-27T17:51:12.268Z,101066.88
2022-07-27T17:53:38.884Z,101062.66
2022-07-27T17:56:05.615Z,101066.84
2022-07-27T17:58:32.054Z,101071.28
2022-07-27T18:00:58.500Z,101075.50
2022-07-27T18:03:24.914Z,101074.81
2022-07-27T18:05:51.818Z,101075.53
2022-07-27T18:08:18.357Z,101070.25
2022-07-27T18:10:44.787Z,101074.38
2022-07-27T18:13:11.275Z,101072.69
2022-07-27T18:15:46.879Z,101071.94
2022-07-27T18:18:15.796Z,101075.22
2022-07-27T18:20:44.655Z,101069.38
2022-07-27T18:23:11.143Z,101084.00
2022-07-27T18:25:37.644Z,101083.00
2022-07-27T18:28:04.232Z,101081.44
2022-07-27T18:30:30.956Z,101091.84
2022-07-27T18:32:57.376Z,101088.81
2022-07-27T18:35:23.878Z,101085.94
2022-07-27T18:37:50.442Z,101098.53
2022-07-27T18:40:17.202Z,101098.19
2022-07-27T18:42:43.665Z,101098.38
2022-07-27T18:45:10.408Z,101106.66
2022-07-27T18:47:37.553Z,101106.66
2022-07-27T18:50:05.969Z,101103.41
2022-07-27T18:52:32.581Z,101109.56
2022-07-27T18:54:59.978Z,101108.00
2022-07-27T18:57:26.416Z,101112.53
2022-07-27T18:59:53.518Z,101115.88
2022-07-27T19:02:20.723Z,101113.19
2022-07-27T19:04:47.253Z,101118.38
2022-07-27T19:07:15.606Z,101121.75
2022-07-27T19:09:42.389Z,101119.88
2022-07-27T19:12:09.883Z,101121.19
2022-07-27T19:14:36.899Z,101130.59
2022-07-27T19:17:03.471Z,101126.03
2022-07-27T19:19:30.635Z,101129.34
2022-07-27T19:21:57.523Z,101135.50
2022-07-27T19:24:24.116Z,101123.38
2022-07-27T19:26:50.662Z,101128.38
2022-07-27T19:29:19.645Z,101132.22
2022-07-27T19:31:46.112Z,101135.59
2022-07-27T19:34:12.560Z,101132.34
2022-07-27T19:36:39.127Z,101141.09
2022-07-27T19:39:07.951Z,101146.00
2022-07-27T19:41:34.883Z,101140.78
2022-07-27T19:44:01.399Z,101145.28
2022-07-27T19:46:27.890Z,101143.81
2022-07-27T19:48:54.812Z,101149.47
2022-07-27T19:51:21.349Z,101159.22
2022-07-27T19:53:48.308Z,101157.75
2022-07-27T19:56:14.853Z,101167.09
2022-07-27T19:58:41.478Z,101164.25
2022-07-27T20:01:09.548Z,101163.03
2022-07-27T20:03:52.083Z,101167.47
2022-07-27T20:06:20.994Z,101174.53
2022-07-27T20:08:47.930Z,101176.47
2022-07-27T20:11:14.378Z,101180.63
2022-07-27T20:13:40.793Z,101171.78
2022-07-27T20:16:07.262Z,101177.97
2022-07-27T20:18:35.599Z,101175.00
2022-07-27T20:21:02.311Z,101169.56
2022-07-27T20:23:29.100Z,101171.63
2022-07-27T20:25:55.574Z,101180.34
2022-07-27T20:28:21.996Z,101172.63
2022-07-27T20:30:48.483Z,101172.25
2022-07-27T20:33:19.443Z,101173.34
2022-07-27T20:35:45.937Z,101172.41
2022-07-27T20:38:12.430Z,101176.72
2022-07-27T20:40:38.860Z,101182.91
2022-07-27T20:43:05.309Z,101187.25
2022-07-27T20:45:31.825Z,101187.78
2022-07-27T20:47:58.319Z,101187.25
2022-07-27T20:50:24.849Z,101191.50
2022-07-27T20:52:51.277Z,101189.41
2022-07-27T20:55:17.725Z,101193.28
2022-07-27T20:57:44.137Z,101192.56
2022-07-27T21:00:11.378Z,101190.16
2022-07-27T21:02:38.055Z,101197.38
2022-07-27T21:05:06.160Z,101192.22
2022-07-27T21:07:32.646Z,101193.38
2022-07-27T21:09:59.074Z,101200.66
2022-07-27T21:12:25.548Z,101201.25
2022-07-27T21:14:52.150Z,101205.94
2022-07-27T21:17:18.618Z,101207.31
2022-07-27T21:19:45.053Z,101208.09
2022-07-27T21:22:11.467Z,101207.78
2022-07-27T21:24:37.869Z,101209.72
2022-07-27T21:27:05.036Z,101208.72
2022-07-27T21:29:31.983Z,101216.41
2022-07-27T21:31:58.564Z,101221.31
2022-07-27T21:34:24.977Z,101220.41
2022-07-27T21:36:51.563Z,101214.84
2022-07-27T21:39:18.179Z,101221.31
2022-07-27T21:41:44.973Z,101218.75
2022-07-27T21:44:11.838Z,101224.91
2022-07-27T21:46:38.483Z,101220.47
2022-07-27T21:49:05.053Z,101220.56
2022-07-27T21:51:31.551Z,101219.59
2022-07-27T21:53:58.049Z,101222.19
2022-07-27T21:56:24.586Z,101215.81
2022-07-27T21:58:51.014Z,101218.69
2022-07-27T22:01:17.699Z,101219.31
2022-07-27T22:03:44.398Z,101218.25
2022-07-27T22:06:11.082Z,101222.19
2022-07-27T22:08:37.758Z,101216.59
2022-07-27T22:11:04.827Z,101225.38
2022-07-27T22:13:31.902Z,101217.47
2022-07-27T22:15:58.357Z,101218.78
2022-07-27T22:18:25.044Z,101218.00
2022-07-27T22:20:51.480Z,101221.84
2022-07-27T22:23:18.302Z,101221.53
2022-07-27T22:25:44.718Z,101220.34
2022-07-27T22:28:11.163Z,101218.53
2022-07-27T22:30:37.578Z,101218.34
2022-07-27T22:33:04.079Z,101222.59
2022-07-27T22:35:30.543Z,101225.72
2022-07-27T22:37:57.039Z,101224.34
2022-07-27T22:40:24.399Z,101225.56
2022-07-27T22:42:50.831Z,101224.84
2022-07-27T22:45:17.711Z,101225.97
2022-07-27T22:47:44.207Z,101229.41
2022-07-27T22:50:13.379Z,101225.06
2022-07-27T22:52:44.812Z,101228.41
2022-07-27T22:55:11.221Z,101233.44
2022-07-27T22:57:37.689Z,101231.19
2022-07-27T23:00:08.907Z,101224.28
2022-07-27T23:02:35.549Z,101216.84
2022-07-27T23:05:02.021Z,101227.19
2022-07-27T23:07:28.565Z,101225.22
2022-07-27T23:09:57.008Z,101230.50
2022-07-27T23:12:24.196Z,101230.22
2022-07-27T23:14:50.893Z,101234.75
2022-07-27T23:17:17.341Z,101240.97
2022-07-27T23:19:43.786Z,101241.19
2022-07-27T23:22:11.650Z,101240.56
2022-07-27T23:24:38.357Z,101237.28
2022-07-27T23:27:07.502Z,101236.44
2022-07-27T23:29:33.912Z,101242.81
2022-07-27T23:32:00.529Z,101242.34
2022-07-27T23:34:28.990Z,101235.88
2022-07-27T23:36:55.694Z,101244.75
2022-07-27T23:39:22.099Z,101238.72
2022-07-27T23:41:50.131Z,101239.72
2022-07-27T23:44:17.336Z,101229.50
2022-07-27T23:46:43.993Z,101234.66
2022-07-27T23:49:10.571Z,101235.84
2022-07-27T23:51:37.139Z,101234.97
2022-07-27T23:54:03.662Z,101240.56
2022-07-27T23:56:30.090Z,101233.78
2022-07-27T23:58:56.495Z,101239.63
